Time;durP1;ratioP1;P1;durP2;ratioP2;P2;SDS_P1;SDS_P2;PMS_P1;PMS_P2;Temp;Humidity;BMP_temperature;BMP_pressure;BME280_temperature;BME280_humidity;BME280_pressure;Samples;Min_cycle;Max_cycle;Signal;HPM_P1;HPM_P2
2022/05/11 00:00:42;;;;;;;8.65;4.07;;;16.00;99.90;;;;;;5032332;28;20374;-76
2022/05/11 00:03:16;;;;;;;10.40;3.30;;;16.00;99.90;;;;;;5031679;28;20029;-76
2022/05/11 00:05:42;;;;;;;14.00;3.65;;;16.00;99.90;;;;;;5031510;28;20036;-76
2022/05/11 00:08:09;;;;;;;10.50;3.27;;;16.00;99.90;;;;;;5031695;28;20022;-76
2022/05/11 00:10:36;;;;;;;9.10;3.60;;;16.00;99.90;;;;;;5031081;28;20303;-76
2022/05/11 00:13:03;;;;;;;13.90;3.63;;;16.00;99.90;;;;;;5031586;28;20037;-76
2022/05/11 00:15:29;;;;;;;;;;;16.00;99.90;;;;;;5032041;28;20691;-76
2022/05/11 00:17:55;;;;;;;9.95;3.33;;;16.00;99.90;;;;;;5031306;28;20257;-76
2022/05/11 00:20:46;;;;;;;13.10;4.00;;;16.00;99.90;;;;;;5031515;28;20230;-76
2022/05/11 00:23:12;;;;;;;7.05;3.08;;;16.00;99.90;;;;;;5030510;28;20017;-76
2022/05/11 00:25:38;;;;;;;7.83;3.30;;;16.00;99.90;;;;;;5031482;28;20049;-76
2022/05/11 00:28:04;;;;;;;12.30;3.63;;;16.00;99.90;;;;;;5031835;28;20438;-76
2022/05/11 00:30:31;;;;;;;10.03;3.17;;;16.00;99.90;;;;;;5030519;28;20747;-76
2022/05/11 00:33:00;;;;;;;10.27;3.15;;;16.00;99.90;;;;;;5031519;28;20339;-76
2022/05/11 00:35:28;;;;;;;9.00;3.40;;;16.00;99.90;;;;;;5031013;28;20496;-76
2022/05/11 00:37:54;;;;;;;11.68;3.45;;;15.90;99.90;;;;;;5030931;28;20021;-75
2022/05/11 00:40:23;;;;;;;9.77;3.40;;;15.90;99.90;;;;;;5031113;28;20036;-75
2022/05/11 00:42:50;;;;;;;11.90;4.25;;;15.80;99.90;;;;;;5031192;28;20033;-76
2022/05/11 00:45:16;;;;;;;17.60;3.40;;;15.80;99.90;;;;;;5031102;28;20041;-76
2022/05/11 00:47:57;;;;;;;6.38;3.03;;;15.80;99.90;;;;;;5030185;28;20026;-76
2022/05/11 00:50:32;;;;;;;8.65;3.03;;;15.80;99.90;;;;;;5031067;28;20160;-76
2022/05/11 00:53:24;;;;;;;9.15;3.15;;;15.80;99.90;;;;;;5031265;28;20308;-76
2022/05/11 00:55:59;;;;;;;12.65;3.08;;;15.80;99.90;;;;;;5028095;28;20034;-76
2022/05/11 00:58:48;;;;;;;13.13;3.33;;;15.80;99.90;;;;;;5029760;28;20351;-76
2022/05/11 01:01:14;;;;;;;11.25;3.33;;;15.80;99.90;;;;;;5031022;28;20025;-75
2022/05/11 01:04:00;;;;;;;13.57;3.58;;;15.80;99.90;;;;;;5030931;28;20359;-76
2022/05/11 01:06:27;;;;;;;6.20;3.20;;;15.80;99.90;;;;;;5030579;28;20030;-76
2022/05/11 01:08:53;;;;;;;15.32;3.35;;;15.80;99.90;;;;;;5030668;28;20018;-75
2022/05/11 01:11:20;;;;;;;9.85;3.17;;;15.80;99.90;;;;;;5030703;28;20117;-75
2022/05/11 01:13:47;;;;;;;7.30;2.92;;;15.80;99.90;;;;;;5031053;28;20044;-76
2022/05/11 01:16:29;;;;;;;15.13;3.03;;;15.90;99.90;;;;;;5031442;28;20112;-75
2022/05/11 01:18:58;;;;;;;6.75;3.00;;;15.80;99.90;;;;;;5028992;28;20041;-76
2022/05/11 01:21:32;;;;;;;9.90;3.35;;;15.70;99.90;;;;;;5033185;28;20411;-76
2022/05/11 01:24:06;;;;;;;10.57;3.10;;;15.70;99.90;;;;;;5035004;28;20039;-77
2022/05/11 01:26:33;;;;;;;9.80;3.17;;;15.60;99.90;;;;;;5034903;28;20021;-75
2022/05/11 01:29:02;;;;;;;7.45;3.20;;;15.60;99.90;;;;;;5035759;28;20026;-76
2022/05/11 01:31:28;;;;;;;10.07;3.25;;;15.70;99.90;;;;;;5034929;28;20440;-75
2022/05/11 01:33:54;;;;;;;7.23;3.00;;;15.70;99.90;;;;;;5034797;28;20415;-75
2022/05/11 01:36:31;;;;;;;6.80;2.97;;;15.70;99.90;;;;;;5032993;28;20036;-76
2022/05/11 01:39:01;;;;;;;7.55;3.15;;;15.70;99.90;;;;;;5034105;28;20390;-75
2022/05/11 01:41:31;;;;;;;7.93;3.20;;;15.60;99.90;;;;;;5034186;28;20069;-76
2022/05/11 01:43:58;;;;;;;7.88;3.53;;;15.70;99.90;;;;;;5033575;28;20163;-76
2022/05/11 01:46:24;;;;;;;;;;;15.70;99.90;;;;;;5034451;28;20069;-76
2022/05/11 01:48:50;;;;;;;9.00;3.65;;;15.60;99.90;;;;;;5034172;28;19912;-75
2022/05/11 01:51:18;;;;;;;7.30;3.33;;;15.70;99.90;;;;;;5034252;28;20037;-75
2022/05/11 01:53:46;;;;;;;7.90;3.42;;;15.70;99.90;;;;;;5034322;28;20032;-75
2022/05/11 01:56:17;;;;;;;8.10;3.20;;;15.60;99.90;;;;;;5033899;28;20040;-75
2022/05/11 01:58:43;;;;;;;8.27;3.00;;;15.70;99.90;;;;;;5033739;28;20057;-75
2022/05/11 02:01:47;;;;;;;10.37;3.77;;;15.70;99.90;;;;;;5032648;28;20120;-75
2022/05/11 02:09:41;;;;;;;14.50;3.42;;;15.80;99.90;;;;;;5033974;28;20508;-75
2022/05/11 02:12:10;;;;;;;7.88;3.10;;;15.70;99.90;;;;;;5034111;28;20076;-75
2022/05/11 02:14:37;;;;;;;11.15;3.28;;;15.70;99.90;;;;;;5033779;28;20029;-75
2022/05/11 02:17:03;;;;;;;;;;;15.70;99.90;;;;;;5033972;28;20022;-75
2022/05/11 02:19:30;;;;;;;9.63;3.28;;;15.70;99.90;;;;;;5034153;28;19920;-76
2022/05/11 02:21:56;;;;;;;8.55;3.35;;;15.70;99.90;;;;;;5033042;28;20076;-75
2022/05/11 02:24:23;;;;;;;11.25;3.47;;;15.60;99.90;;;;;;5033209;28;20097;-75
2022/05/11 02:26:49;;;;;;;10.73;3.47;;;15.60;99.90;;;;;;5033050;28;20026;-76
2022/05/11 02:29:15;;;;;;;12.17;3.40;;;15.60;99.90;;;;;;5033127;28;20091;-75
2022/05/11 02:31:41;;;;;;;9.27;3.15;;;15.60;99.90;;;;;;5032578;28;20260;-75
2022/05/11 02:34:07;;;;;;;13.40;4.13;;;15.60;99.90;;;;;;5033092;28;20033;-75
2022/05/11 02:36:36;;;;;;;10.50;3.20;;;15.70;99.90;;;;;;5033009;28;20022;-75
2022/05/11 02:39:02;;;;;;;9.52;2.97;;;15.70;99.90;;;;;;5033056;28;20107;-75
2022/05/11 02:41:28;;;;;;;15.23;3.60;;;15.70;99.90;;;;;;5032846;28;20097;-76
2022/05/11 02:43:54;;;;;;;20.73;4.10;;;15.70;99.90;;;;;;5033213;28;20060;-75
2022/05/11 02:46:23;;;;;;;8.63;4.00;;;15.70;99.90;;;;;;5032308;28;20453;-75
2022/05/11 02:48:49;;;;;;;10.35;3.45;;;15.70;99.90;;;;;;5032732;28;20684;-75
2022/05/11 02:51:15;;;;;;;9.57;3.10;;;15.80;99.90;;;;;;5033052;28;20110;-76
2022/05/11 02:53:41;;;;;;;10.43;2.80;;;15.90;99.90;;;;;;5032514;28;20425;-75
2022/05/11 02:56:45;;;;;;;15.47;3.87;;;15.90;99.90;;;;;;5033179;28;20100;-75
2022/05/11 02:59:36;;;;;;;7.57;3.33;;;16.00;99.90;;;;;;5032890;28;20128;-75
2022/05/11 03:02:02;;;;;;;6.55;2.88;;;16.00;99.90;;;;;;5033774;28;20025;-74
2022/05/11 03:04:29;;;;;;;11.32;3.95;;;16.00;99.90;;;;;;5032827;28;20021;-75
2022/05/11 03:06:55;;;;;;;7.40;3.42;;;16.00;99.90;;;;;;5032688;28;20025;-75
2022/05/11 03:09:21;;;;;;;12.70;3.47;;;15.90;99.90;;;;;;5033154;28;20029;-75
2022/05/11 03:11:47;;;;;;;9.17;3.10;;;15.90;99.90;;;;;;5032813;28;20100;-75
2022/05/11 03:14:14;;;;;;;11.32;3.45;;;15.90;99.90;;;;;;5033124;28;20267;-75
2022/05/11 03:16:41;;;;;;;10.27;3.35;;;15.80;99.90;;;;;;5032754;28;20051;-74
2022/05/11 03:19:07;;;;;;;11.07;3.40;;;15.90;99.90;;;;;;5032432;28;20044;-75
2022/05/11 03:21:34;;;;;;;8.10;2.80;;;15.90;99.90;;;;;;5032554;28;20072;-74
2022/05/11 03:24:00;;;;;;;8.77;3.40;;;15.90;99.90;;;;;;5032982;28;20032;-74
2022/05/11 03:26:27;;;;;;;9.30;3.42;;;15.90;99.90;;;;;;5032705;28;20087;-75
2022/05/11 03:28:53;;;;;;;9.25;3.30;;;15.90;99.90;;;;;;5032296;28;20060;-74
2022/05/11 03:31:19;;;;;;;9.50;2.70;;;15.90;99.90;;;;;;5032285;28;20439;-75
2022/05/11 03:36:31;;;;;;;13.30;3.92;;;15.90;99.90;;;;;;5033090;28;20496;-75
2022/05/11 03:38:57;;;;;;;12.80;3.78;;;15.90;99.90;;;;;;5032614;28;20045;-75
2022/05/11 03:41:23;;;;;;;12.37;3.17;;;15.90;99.90;;;;;;5032889;28;20079;-75
2022/05/11 03:43:49;;;;;;;8.10;2.93;;;15.90;99.90;;;;;;5031497;28;20033;-74
2022/05/11 03:46:15;;;;;;;9.63;3.47;;;15.80;99.90;;;;;;5032327;28;20276;-75
2022/05/11 03:48:42;;;;;;;11.93;3.30;;;15.90;99.90;;;;;;5032462;28;20267;-75
2022/05/11 03:51:08;;;;;;;8.75;3.20;;;15.80;99.90;;;;;;5032349;28;20371;-75
2022/05/11 03:53:36;;;;;;;8.03;2.90;;;15.80;99.90;;;;;;5032308;28;20328;-75
2022/05/11 03:56:02;;;;;;;8.20;3.55;;;15.70;99.90;;;;;;5032408;28;20038;-75
2022/05/11 03:58:28;;;;;;;11.40;3.50;;;15.70;99.90;;;;;;5032471;28;20129;-75
2022/05/11 04:00:54;;;;;;;8.30;3.10;;;15.70;99.90;;;;;;5032442;28;20112;-75
2022/05/11 04:03:20;;;;;;;8.32;3.58;;;15.70;99.90;;;;;;5032460;28;20029;-76
2022/05/11 04:05:46;;;;;;;8.90;2.80;;;15.70;99.90;;;;;;5032050;28;20384;-75
2022/05/11 04:08:12;;;;;;;12.97;3.00;;;15.80;99.90;;;;;;5032207;28;20025;-75
2022/05/11 04:10:38;;;;;;;11.00;3.70;;;15.80;99.90;;;;;;5032057;28;20473;-75
2022/05/11 04:13:04;;;;;;;12.13;3.33;;;15.80;99.90;;;;;;5032379;28;20037;-75
2022/05/11 04:15:31;;;;;;;9.32;2.90;;;15.90;99.90;;;;;;5031851;28;20288;-75
2022/05/11 04:17:57;;;;;;;9.25;3.20;;;15.90;99.90;;;;;;5032659;28;20509;-76
2022/05/11 04:20:23;;;;;;;14.07;3.60;;;15.80;99.90;;;;;;5033748;28;20390;-76
2022/05/11 04:22:50;;;;;;;10.38;3.47;;;15.80;99.90;;;;;;5031673;28;20056;-76
2022/05/11 04:25:16;;;;;;;;;;;15.90;99.90;;;;;;5033315;28;20548;-76
2022/05/11 04:27:48;;;;;;;12.35;3.58;;;15.90;99.90;;;;;;5032947;28;19905;-76
2022/05/11 04:30:16;;;;;;;14.07;3.55;;;15.90;99.90;;;;;;5032834;28;20032;-76
2022/05/11 04:32:42;;;;;;;9.57;3.17;;;16.00;99.90;;;;;;5032716;28;20072;-76
2022/05/11 04:35:09;;;;;;;13.60;3.08;;;16.00;99.90;;;;;;5033080;28;20366;-76
2022/05/11 04:37:35;;;;;;;;;;;16.10;99.90;;;;;;5032987;28;20029;-76
2022/05/11 04:40:01;;;;;;;12.63;3.70;;;16.20;99.90;;;;;;5031209;28;20396;-76
2022/05/11 04:42:27;;;;;;;9.85;3.10;;;16.20;99.90;;;;;;5031194;28;20019;-76
2022/05/11 04:44:54;;;;;;;8.53;2.93;;;16.20;99.90;;;;;;5029694;28;20133;-75
2022/05/11 04:47:20;;;;;;;10.70;3.00;;;16.30;99.90;;;;;;5032838;28;20267;-76
2022/05/11 04:49:46;;;;;;;21.90;3.40;;;16.40;99.90;;;;;;5032551;28;20053;-76
2022/05/11 04:52:15;;;;;;;9.32;3.25;;;16.40;99.90;;;;;;5031014;28;20026;-76
2022/05/11 04:54:48;;;;;;;12.63;3.25;;;16.30;99.90;;;;;;5032038;28;20108;-76
2022/05/11 04:57:15;;;;;;;8.35;2.85;;;16.30;99.90;;;;;;5021589;28;20022;-75
2022/05/11 04:59:41;;;;;;;14.00;3.17;;;16.30;99.90;;;;;;5020986;28;20104;-75
2022/05/11 05:02:20;;;;;;;15.10;3.60;;;16.30;99.90;;;;;;5020498;28;20109;-75
2022/05/11 05:04:47;;;;;;;10.05;3.33;;;16.30;99.90;;;;;;5018679;28;20041;-74
2022/05/11 05:07:13;;;;;;;10.90;2.95;;;16.20;99.90;;;;;;5026817;28;20072;-76
2022/05/11 05:09:41;;;;;;;13.27;3.22;;;16.30;99.90;;;;;;5031396;28;20084;-76
2022/05/11 05:12:08;;;;;;;11.35;3.15;;;16.50;99.90;;;;;;5029009;28;20072;-72
2022/05/11 05:14:34;;;;;;;12.57;2.95;;;16.60;99.90;;;;;;5028641;28;20037;-76
2022/05/11 05:17:06;;;;;;;7.53;2.60;;;17.40;99.90;;;;;;5032979;28;20497;-76
2022/05/11 05:19:32;;;;;;;10.55;3.67;;;18.60;99.90;;;;;;5033268;28;20041;-76
2022/05/11 05:22:02;;;;;;;10.93;2.88;;;19.50;99.90;;;;;;5032915;28;20029;-76
2022/05/11 05:24:30;;;;;;;9.48;2.55;;;20.20;99.90;;;;;;5032697;28;20029;-76
2022/05/11 05:26:57;;;;;;;13.35;3.15;;;20.50;99.90;;;;;;5031623;28;20450;-76
2022/05/11 05:32:08;;;;;;;10.15;2.67;;;21.40;99.90;;;;;;5031499;28;20095;-76
2022/05/11 05:34:34;;;;;;;10.20;2.38;;;22.30;99.90;;;;;;5031951;28;20027;-76
2022/05/11 05:37:00;;;;;;;5.45;2.42;;;23.40;99.90;;;;;;5030039;28;20056;-76
2022/05/11 05:39:26;;;;;;;9.45;2.70;;;23.30;99.90;;;;;;5031082;28;20122;-75
2022/05/11 05:41:52;;;;;;;10.25;2.92;;;23.10;99.90;;;;;;5032411;28;20080;-75
2022/05/11 05:44:19;;;;;;;10.38;3.13;;;22.40;99.90;;;;;;5032294;28;20026;-76
2022/05/11 05:46:46;;;;;;;11.57;3.13;;;22.30;99.90;;;;;;5030993;28;20053;-76
2022/05/11 05:49:12;;;;;;;;;;;22.90;99.90;;;;;;5031459;28;20025;-75
2022/05/11 05:51:39;;;;;;;;;;;23.80;99.90;;;;;;5030326;28;19917;-72
2022/05/11 05:54:06;;;;;;;8.40;2.65;;;24.90;99.50;;;;;;5030791;28;20354;-73
2022/05/11 05:56:32;;;;;;;8.85;2.90;;;26.10;97.90;;;;;;5031583;28;20029;-77
2022/05/11 05:59:03;;;;;;;12.77;2.40;;;25.10;97.90;;;;;;5029450;28;20429;-76
2022/05/11 06:01:29;;;;;;;11.60;2.70;;;26.40;97.30;;;;;;5030636;28;20033;-76
2022/05/11 06:03:55;;;;;;;;;;;26.20;96.40;;;;;;5031641;28;20436;-77
2022/05/11 06:06:21;;;;;;;11.18;2.60;;;26.70;95.70;;;;;;5031606;28;19954;-77
2022/05/11 06:08:47;;;;;;;10.52;2.30;;;26.70;94.90;;;;;;5032630;28;20029;-77
2022/05/11 06:11:13;;;;;;;10.00;2.30;;;26.60;94.90;;;;;;5033720;28;20045;-77
2022/05/11 06:13:41;;;;;;;13.70;2.50;;;27.10;94.00;;;;;;5034537;28;20446;-77
2022/05/11 06:16:14;;;;;;;10.45;2.30;;;27.60;93.40;;;;;;5032927;28;20385;-78
2022/05/11 06:18:41;;;;;;;12.35;2.78;;;26.80;93.20;;;;;;5035707;28;20128;-78
2022/05/11 06:21:08;;;;;;;9.23;2.35;;;27.20;93.00;;;;;;5034157;28;20029;-79
2022/05/11 06:23:36;;;;;;;9.18;2.70;;;28.30;92.10;;;;;;5035660;28;20096;-80
2022/05/11 06:26:02;;;;;;;15.13;3.08;;;28.60;90.70;;;;;;5035048;28;20036;-81
2022/05/11 06:28:28;;;;;;;8.50;2.35;;;29.70;90.30;;;;;;5035078;28;20022;-79
2022/05/11 06:30:54;;;;;;;;;;;30.40;87.30;;;;;;5035366;28;20497;-79
2022/05/11 06:33:23;;;;;;;12.32;2.40;;;31.70;84.00;;;;;;5034561;28;19909;-78
2022/05/11 06:35:49;;;;;;;8.55;2.38;;;32.60;79.00;;;;;;5034599;28;20022;-78
2022/05/11 06:38:15;;;;;;;;;;;31.20;80.20;;;;;;5035256;28;20041;-78
2022/05/11 06:40:41;;;;;;;12.75;2.60;;;31.10;79.50;;;;;;5034365;28;19916;-77
2022/05/11 06:43:06;;;;;;;;;;;30.70;79.70;;;;;;5034729;28;20044;-78
2022/05/11 06:45:33;;;;;;;15.68;2.88;;;31.70;80.30;;;;;;5032393;28;19924;-78
2022/05/11 06:47:59;;;;;;;12.68;2.45;;;32.60;76.60;;;;;;5034010;28;20422;-78
2022/05/11 06:50:26;;;;;;;;;;;32.90;75.50;;;;;;5034572;28;20017;-79
2022/05/11 06:52:53;;;;;;;10.07;2.63;;;31.10;75.80;;;;;;5034071;28;19920;-79
2022/05/11 07:00:49;;;;;;;10.97;2.37;;;28.70;80.50;;;;;;5034737;28;20252;-79
2022/05/11 07:03:15;;;;;;;9.07;2.20;;;27.80;82.40;;;;;;5033803;28;20025;-76
2022/05/11 07:05:43;;;;;;;10.05;2.58;;;27.90;83.00;;;;;;5033759;28;20029;-77
2022/05/11 07:08:10;;;;;;;14.52;2.40;;;28.20;82.20;;;;;;5032227;28;20084;-76
2022/05/11 07:10:37;;;;;;;8.02;2.35;;;26.80;85.20;;;;;;5034195;28;20397;-76
2022/05/11 07:13:04;;;;;;;11.63;3.05;;;26.80;85.00;;;;;;5034244;28;20039;-77
2022/05/11 07:15:30;;;;;;;11.95;2.83;;;26.30;84.90;;;;;;5033390;28;20053;-78
2022/05/11 07:17:59;;;;;;;14.55;2.90;;;25.60;87.10;;;;;;5033571;28;20075;-76
2022/05/11 07:20:36;;;;;;;11.77;2.22;;;24.90;87.90;;;;;;5016339;28;20025;-80
2022/05/11 07:23:07;;;;;;;6.78;2.47;;;24.60;89.50;;;;;;5032597;28;20025;-77
2022/05/11 07:25:34;;;;;;;10.32;2.92;;;24.50;89.70;;;;;;5033463;28;20030;-77
2022/05/11 07:28:01;;;;;;;10.82;2.80;;;24.70;90.00;;;;;;5033274;28;20251;-76
2022/05/11 07:30:32;;;;;;;11.20;2.55;;;24.50;89.70;;;;;;5033379;28;20475;-77
2022/05/11 07:32:59;;;;;;;15.73;2.92;;;24.30;90.20;;;;;;5033478;28;20091;-78
2022/05/11 07:35:25;;;;;;;8.73;2.33;;;24.10;90.40;;;;;;5032065;28;20037;-75
2022/05/11 07:37:51;;;;;;;8.60;2.50;;;24.00;90.70;;;;;;5033212;28;20032;-75
2022/05/11 07:40:20;;;;;;;12.65;2.88;;;23.90;90.80;;;;;;5033714;28;20117;-77
2022/05/11 07:42:46;;;;;;;11.05;2.60;;;23.80;90.80;;;;;;5033145;28;20046;-75
2022/05/11 07:45:14;;;;;;;5.55;1.67;;;23.70;91.00;;;;;;5032196;28;20368;-76
2022/05/11 07:47:40;;;;;;;11.55;3.10;;;23.80;90.90;;;;;;5032821;28;20028;-76
2022/05/11 07:50:08;;;;;;;12.90;2.75;;;23.90;91.10;;;;;;5031339;28;20338;-76
2022/05/11 07:52:34;;;;;;;10.90;2.35;;;24.40;91.00;;;;;;5033024;28;20032;-76
2022/05/11 07:55:00;;;;;;;12.60;2.97;;;24.90;90.60;;;;;;5031788;28;20041;-76
2022/05/11 08:00:12;;;;;;;11.02;2.42;;;25.40;85.80;;;;;;5032918;28;20048;-75
2022/05/11 08:02:39;;;;;;;15.65;2.50;;;24.80;87.20;;;;;;5033203;28;20025;-76
2022/05/11 08:05:11;;;;;;;14.43;2.60;;;24.60;88.70;;;;;;5031344;28;20420;-76
2022/05/11 08:07:49;;;;;;;12.15;2.40;;;24.80;87.70;;;;;;5032662;28;20065;-77
2022/05/11 08:10:33;;;;;;;15.07;2.70;;;25.40;87.80;;;;;;5032722;28;20029;-77
2022/05/11 08:13:00;;;;;;;11.50;2.58;;;26.00;86.90;;;;;;5033045;28;20029;-76
2022/05/11 08:15:31;;;;;;;10.73;2.60;;;26.30;87.00;;;;;;5032779;28;20025;-78
2022/05/11 08:18:11;;;;;;;18.08;2.92;;;26.70;84.30;;;;;;5031840;28;20030;-77
2022/05/11 08:20:41;;;;;;;11.73;2.83;;;27.30;86.10;;;;;;5032825;28;20037;-78
2022/05/11 08:23:09;;;;;;;9.98;2.60;;;27.70;83.40;;;;;;5032025;28;20021;-77
2022/05/11 08:25:38;;;;;;;8.63;2.47;;;27.90;80.20;;;;;;5032492;28;20440;-78
2022/05/11 08:28:10;;;;;;;12.00;2.85;;;28.10;79.20;;;;;;5031814;28;20386;-77
2022/05/11 08:33:24;;;;;;;12.30;2.80;;;28.20;84.30;;;;;;5032964;28;20099;-77
2022/05/11 08:35:59;;;;;;;11.48;2.92;;;28.00;86.40;;;;;;5031265;28;20206;-77
2022/05/11 08:38:34;;;;;;;11.40;3.15;;;28.10;86.50;;;;;;5031053;28;20474;-77
2022/05/11 08:41:23;;;;;;;10.98;2.70;;;27.90;86.50;;;;;;5032684;28;20466;-77
2022/05/11 08:43:50;;;;;;;10.93;3.15;;;28.20;86.00;;;;;;5033100;28;20022;-77
2022/05/11 08:46:20;;;;;;;9.65;2.40;;;27.90;86.00;;;;;;5032293;28;20191;-78
2022/05/11 08:49:12;;;;;;;10.30;3.10;;;27.80;87.80;;;;;;5032634;28;20041;-78
2022/05/11 08:51:48;;;;;;;8.80;2.80;;;28.00;86.90;;;;;;5032605;28;20040;-77
2022/05/11 08:54:28;;;;;;;11.82;3.10;;;27.50;86.80;;;;;;5031991;28;20081;-78
2022/05/11 08:56:55;;;;;;;12.45;3.17;;;27.70;87.30;;;;;;5032239;28;20083;-77
2022/05/11 08:59:30;;;;;;;12.20;2.85;;;27.50;86.90;;;;;;5031710;28;20041;-77
2022/05/11 09:02:14;;;;;;;15.73;3.05;;;27.70;87.70;;;;;;5031942;28;20355;-77
2022/05/11 09:04:49;;;;;;;13.85;3.30;;;27.40;87.90;;;;;;5032271;28;20032;-77
2022/05/11 09:07:52;;;;;;;11.70;2.88;;;27.50;88.40;;;;;;5032375;28;20026;-77
2022/05/11 09:10:37;;;;;;;12.70;2.92;;;27.50;87.80;;;;;;5031049;28;20474;-77
2022/05/11 09:13:10;;;;;;;14.77;2.80;;;27.70;87.50;;;;;;5031405;28;20029;-78
2022/05/11 09:15:49;;;;;;;15.00;2.90;;;28.00;86.40;;;;;;5031860;28;20029;-78
2022/05/11 09:18:16;;;;;;;9.63;2.78;;;28.10;84.40;;;;;;5031352;28;20462;-78
2022/05/11 09:20:48;;;;;;;10.05;2.55;;;28.40;83.90;;;;;;5032282;28;20470;-78
2022/05/11 09:23:26;;;;;;;13.68;2.50;;;27.90;83.60;;;;;;5032272;28;20037;-77
2022/05/11 09:26:02;;;;;;;12.32;2.80;;;27.70;84.20;;;;;;5032079;28;20025;-77
2022/05/11 09:28:31;;;;;;;15.48;2.85;;;27.80;84.10;;;;;;5032240;28;20411;-77
2022/05/11 09:31:06;;;;;;;9.32;2.65;;;27.80;82.30;;;;;;5031563;28;20124;-77
2022/05/11 09:33:37;;;;;;;14.10;2.70;;;27.80;81.50;;;;;;5031524;28;20021;-78
2022/05/11 09:36:04;;;;;;;12.38;2.75;;;27.60;82.90;;;;;;5030757;28;20025;-77
2022/05/11 09:38:37;;;;;;;8.88;2.47;;;27.30;82.20;;;;;;5031271;28;20064;-77
2022/05/11 09:41:29;;;;;;;17.90;3.22;;;27.20;84.00;;;;;;5031850;28;20025;-77
2022/05/11 09:43:58;;;;;;;12.77;3.20;;;27.10;84.70;;;;;;5034867;28;20117;-77
2022/05/11 09:46:27;;;;;;;14.07;3.00;;;27.30;84.80;;;;;;5033841;28;20046;-77
2022/05/11 09:48:58;;;;;;;11.95;2.97;;;27.00;82.80;;;;;;5035089;28;20029;-77
2022/05/11 09:51:36;;;;;;;10.20;2.58;;;27.10;83.70;;;;;;5035087;28;20092;-78
2022/05/11 09:54:40;;;;;;;11.05;3.13;;;26.90;83.80;;;;;;5034514;28;20105;-77
2022/05/11 09:57:08;;;;;;;8.68;2.70;;;26.50;86.20;;;;;;5014939;28;20024;-78
2022/05/11 09:59:39;;;;;;;15.20;3.00;;;26.60;86.80;;;;;;5014762;28;20037;-77
2022/05/11 10:02:34;;;;;;;9.38;2.45;;;26.50;86.50;;;;;;5013203;28;20135;-78
2022/05/11 10:05:11;;;;;;;12.63;2.90;;;26.50;85.60;;;;;;5014676;28;20085;-77
2022/05/11 10:08:00;;;;;;;10.32;2.92;;;26.60;86.70;;;;;;5013039;28;20109;-78
2022/05/11 10:10:48;;;;;;;9.80;3.00;;;26.40;87.50;;;;;;5015029;28;20113;-76
2022/05/11 10:13:17;;;;;;;12.30;2.83;;;26.60;87.90;;;;;;5014720;28;20028;-76
2022/05/11 10:21:56;;;;;;;11.77;2.80;;;26.50;83.60;;;;;;5014150;28;20069;-76
2022/05/11 10:24:44;;;;;;;11.85;2.47;;;26.60;85.10;;;;;;5014366;28;20022;-76
2022/05/11 10:27:15;;;;;;;8.48;2.40;;;26.80;83.50;;;;;;5014633;28;20096;-76
2022/05/11 10:30:06;;;;;;;11.68;2.97;;;26.90;81.20;;;;;;5022441;28;20490;-75
2022/05/11 10:33:09;;;;;;;12.13;2.88;;;26.70;81.90;;;;;;5034211;28;20032;-75
2022/05/11 10:36:12;;;;;;;15.88;3.28;;;26.60;81.70;;;;;;5034340;28;20032;-76
2022/05/11 10:38:50;;;;;;;13.38;3.20;;;26.70;83.40;;;;;;5034051;28;20030;-76
2022/05/11 10:41:32;;;;;;;17.85;2.83;;;26.90;83.30;;;;;;5034210;28;20025;-76
2022/05/11 10:44:31;;;;;;;13.55;2.58;;;26.90;82.80;;;;;;5033695;28;20033;-76
2022/05/11 10:47:06;;;;;;;13.43;2.83;;;26.70;81.00;;;;;;5033699;28;20051;-76
2022/05/11 10:49:47;;;;;;;12.63;2.88;;;26.00;82.50;;;;;;5032309;28;20466;-76
2022/05/11 10:52:41;;;;;;;12.68;2.22;;;26.20;81.60;;;;;;5033529;28;20025;-76
2022/05/11 10:55:17;;;;;;;8.57;2.20;;;26.20;80.40;;;;;;5033562;28;20025;-76
2022/05/11 10:58:00;;;;;;;6.90;2.33;;;26.40;80.00;;;;;;5033583;28;20435;-75
2022/05/11 11:00:31;;;;;;;18.67;2.88;;;26.50;81.40;;;;;;5033080;28;20025;-76
2022/05/11 11:03:38;;;;;;;8.80;2.30;;;26.50;80.80;;;;;;5032051;28;20421;-77
2022/05/11 11:09:18;;;;;;;10.98;2.70;;;26.60;79.70;;;;;;4991919;28;20521;-77
2022/05/11 11:12:03;;;;;;;11.00;2.20;;;26.40;79.30;;;;;;4991711;28;20530;-76
2022/05/11 11:14:37;;;;;;;9.60;2.40;;;26.30;81.30;;;;;;4990521;28;20065;-76
2022/05/11 11:17:06;;;;;;;12.32;2.47;;;26.50;79.30;;;;;;4991608;28;20030;-76
2022/05/11 11:19:34;;;;;;;10.90;2.47;;;26.60;80.30;;;;;;4991943;28;20054;-75
2022/05/11 11:22:01;;;;;;;17.65;2.92;;;26.40;80.20;;;;;;4991989;28;20029;-76
2022/05/11 11:24:29;;;;;;;11.30;2.55;;;26.60;80.20;;;;;;4975325;28;20065;-76
2022/05/11 11:26:57;;;;;;;9.23;2.50;;;26.90;79.30;;;;;;4991853;28;20034;-76
2022/05/11 11:29:26;;;;;;;13.27;2.55;;;27.00;77.60;;;;;;4991948;28;20050;-75
2022/05/11 11:32:00;;;;;;;10.00;2.40;;;27.00;77.90;;;;;;4991922;28;20038;-75
2022/05/11 11:34:30;;;;;;;10.95;2.22;;;27.40;77.30;;;;;;4991473;28;20400;-76
2022/05/11 11:36:56;;;;;;;8.65;2.25;;;27.10;76.00;;;;;;4991462;28;20125;-76
2022/05/11 11:39:48;;;;;;;12.15;2.50;;;27.40;76.00;;;;;;4991728;28;20557;-76
2022/05/11 11:42:31;;;;;;;7.88;2.65;;;27.40;76.10;;;;;;4982779;28;20023;-76
2022/05/11 11:44:57;;;;;;;13.48;2.60;;;27.60;76.40;;;;;;4983668;28;20044;-76
2022/05/11 11:47:26;;;;;;;9.07;2.55;;;27.20;76.60;;;;;;5033222;28;20043;-76
2022/05/11 11:49:58;;;;;;;10.93;2.58;;;27.00;76.80;;;;;;5032106;28;20097;-75
2022/05/11 11:52:33;;;;;;;15.65;2.80;;;27.20;77.20;;;;;;5032341;28;20032;-78
2022/05/11 11:55:00;;;;;;;12.93;2.40;;;27.30;76.80;;;;;;5032817;28;20025;-77
2022/05/11 11:57:30;;;;;;;14.20;2.65;;;27.40;76.30;;;;;;5032731;28;20126;-78
2022/05/11 12:00:05;;;;;;;7.78;2.30;;;26.90;76.60;;;;;;5031889;28;20032;-79
2022/05/11 12:02:42;;;;;;;9.05;2.38;;;26.90;78.00;;;;;;5030852;28;20032;-79
2022/05/11 12:05:26;;;;;;;12.25;2.78;;;27.30;77.30;;;;;;5032308;28;20029;-79
2022/05/11 12:16:30;;;;;;;9.88;2.53;;;26.30;77.90;;;;;;5033550;28;20390;-78
2022/05/11 12:19:09;;;;;;;;;;;26.00;78.50;;;;;;5033824;28;20037;-77
2022/05/11 12:21:37;;;;;;;9.88;2.35;;;25.70;80.40;;;;;;5032078;28;19913;-77
2022/05/11 12:24:06;;;;;;;10.48;2.42;;;25.50;80.00;;;;;;5033627;28;20021;-78
2022/05/11 12:26:36;;;;;;;13.48;2.50;;;25.50;79.80;;;;;;5033647;28;20053;-77
2022/05/11 12:32:00;;;;;;;10.43;2.33;;;25.30;79.10;;;;;;5033781;28;20039;-79
2022/05/11 12:34:28;;;;;;;14.15;2.80;;;25.10;78.30;;;;;;5033588;28;20017;-77
2022/05/11 12:36:55;;;;;;;10.75;2.88;;;25.10;78.00;;;;;;5033873;28;20022;-77
2022/05/11 12:39:35;;;;;;;11.65;2.40;;;25.00;77.90;;;;;;5033433;28;20110;-77
2022/05/11 12:42:02;;;;;;;12.70;2.70;;;24.70;78.90;;;;;;5031974;28;20025;-76
2022/05/11 12:44:38;;;;;;;10.85;2.75;;;25.00;80.00;;;;;;5032232;28;20033;-77
2022/05/11 12:47:07;;;;;;;11.05;2.75;;;25.00;78.90;;;;;;5033069;28;20608;-73
2022/05/11 12:49:33;;;;;;;7.38;2.50;;;25.10;79.70;;;;;;5032956;28;20088;-77
2022/05/11 12:52:08;;;;;;;11.15;2.38;;;25.10;79.10;;;;;;5033227;28;20029;-76
2022/05/11 12:54:34;;;;;;;11.43;2.50;;;25.10;78.90;;;;;;5032964;28;20095;-75
2022/05/11 12:57:13;;;;;;;16.30;2.88;;;24.70;79.40;;;;;;5032915;28;20059;-76
2022/05/11 12:59:52;;;;;;;15.70;3.38;;;24.80;80.00;;;;;;5032730;28;20232;-76
2022/05/11 13:02:31;;;;;;;11.10;2.55;;;24.90;80.00;;;;;;5033206;28;20025;-76
2022/05/11 13:05:00;;;;;;;17.67;3.10;;;25.00;80.30;;;;;;5032609;28;20117;-76
2022/05/11 13:07:38;;;;;;;11.48;2.67;;;25.20;79.90;;;;;;5032747;28;20014;-76
2022/05/11 13:10:08;;;;;;;12.75;2.60;;;25.60;78.20;;;;;;5032888;28;20034;-76
2022/05/11 13:12:37;;;;;;;11.15;3.10;;;26.10;77.60;;;;;;5032931;28;20458;-76
2022/05/11 13:15:03;;;;;;;13.15;4.45;;;26.10;76.90;;;;;;5032535;28;20026;-75
2022/05/11 13:17:40;;;;;;;13.35;3.80;;;26.10;76.00;;;;;;5036040;28;20049;-76
2022/05/11 13:20:17;;;;;;;14.82;3.88;;;26.30;76.10;;;;;;5035745;28;20038;-76
2022/05/11 13:23:00;;;;;;;13.88;3.25;;;26.40;74.60;;;;;;5037489;28;20041;-75
2022/05/11 13:25:48;;;;;;;14.60;2.92;;;26.50;74.70;;;;;;5036925;28;20026;-75
2022/05/11 13:28:23;;;;;;;16.00;4.05;;;26.60;73.70;;;;;;5036522;28;20867;-76
2022/05/11 13:30:51;;;;;;;14.63;2.90;;;26.40;73.60;;;;;;5035404;28;20034;-77
2022/05/11 13:33:42;;;;;;;13.23;2.80;;;26.20;74.80;;;;;;5036659;28;20036;-77
2022/05/11 13:36:21;;;;;;;11.98;3.35;;;26.50;75.30;;;;;;5035376;28;20382;-76
2022/05/11 13:38:52;;;;;;;15.15;3.78;;;26.60;75.90;;;;;;5036757;28;20482;-78
2022/05/11 13:41:23;;;;;;;16.10;4.15;;;26.60;75.10;;;;;;5036264;28;20076;-75
2022/05/11 13:44:28;;;;;;;12.38;3.60;;;26.30;76.20;;;;;;5036683;28;20412;-76
2022/05/11 13:49:48;;;;;;;10.90;3.20;;;26.10;76.70;;;;;;5036176;28;20064;-76